createdAt,value
2023-01-07T00:01:33.868Z,7.70
2023-01-07T00:04:03.443Z,8.20
2023-01-07T00:06:37.070Z,7.27
2023-01-07T00:09:08.375Z,7.90
2023-01-07T00:11:38.507Z,7.87
2023-01-07T00:14:10.168Z,7.10
2023-01-07T00:16:38.383Z,7.90
2023-01-07T00:19:08.036Z,7.50
2023-01-07T00:21:35.557Z,7.97
2023-01-07T00:24:06.133Z,7.67
2023-01-07T00:26:36.744Z,8.20
2023-01-07T00:29:05.886Z,8.20
2023-01-07T00:31:38.223Z,8.50
2023-01-07T00:34:05.435Z,7.80
2023-01-07T00:36:43.227Z,7.30
2023-01-07T00:39:20.025Z,7.70
2023-01-07T00:42:06.900Z,8.40
2023-01-07T00:44:35.086Z,7.70
2023-01-07T00:47:02.701Z,8.10
2023-01-07T00:49:29.858Z,8.07
2023-01-07T00:51:57.142Z,8.10
2023-01-07T00:54:24.675Z,8.30
2023-01-07T00:56:51.694Z,8.60
2023-01-07T00:59:18.628Z,7.97
2023-01-07T01:01:45.778Z,8.67
2023-01-07T01:04:13.002Z,9.20
2023-01-07T01:06:40.070Z,8.53
2023-01-07T01:09:07.069Z,8.70
2023-01-07T01:11:34.089Z,8.40
2023-01-07T01:14:01.018Z,7.80
2023-01-07T01:16:28.023Z,8.25
2023-01-07T01:18:55.057Z,8.43
2023-01-07T01:21:22.042Z,8.83
2023-01-07T01:23:49.095Z,8.50
2023-01-07T01:26:17.637Z,7.47
2023-01-07T01:28:46.018Z,8.90
2023-01-07T01:31:13.706Z,8.30
2023-01-07T01:33:41.300Z,7.97
2023-01-07T01:36:11.241Z,9.57
2023-01-07T01:38:38.271Z,8.40
2023-01-07T01:41:07.156Z,8.23
2023-01-07T01:43:37.197Z,7.70
2023-01-07T01:46:34.321Z,7.10
2023-01-07T01:49:27.066Z,7.57
2023-01-07T01:52:05.152Z,7.97
2023-01-07T01:54:33.568Z,8.87
2023-01-07T01:57:03.351Z,8.20
2023-01-07T01:59:42.645Z,8.30
2023-01-07T02:02:10.483Z,8.80
2023-01-07T02:04:37.839Z,7.70
2023-01-07T02:07:16.125Z,9.20
2023-01-07T02:09:43.132Z,7.70
2023-01-07T02:12:58.332Z,8.73
2023-01-07T02:15:43.878Z,7.90
2023-01-07T02:19:00.167Z,7.20
2023-01-07T02:22:16.507Z,7.50
2023-01-07T02:25:11.598Z,8.20
2023-01-07T02:28:29.116Z,7.67
2023-01-07T02:31:29.993Z,7.90
2023-01-07T02:34:28.393Z,6.97
2023-01-07T02:37:14.885Z,8.50
2023-01-07T02:39:58.841Z,8.27
2023-01-07T02:43:07.851Z,7.83
2023-01-07T02:45:47.516Z,8.43
2023-01-07T02:48:18.535Z,7.50
2023-01-07T02:50:45.770Z,8.10
2023-01-07T02:53:18.176Z,9.00
2023-01-07T02:56:18.655Z,8.30
2023-01-07T02:59:12.833Z,7.87
2023-01-07T03:02:21.898Z,8.33
2023-01-07T03:05:16.672Z,7.97
2023-01-07T03:08:14.191Z,7.93
2023-01-07T03:11:03.056Z,7.93
2023-01-07T03:14:01.164Z,8.37
2023-01-07T03:16:40.682Z,7.50
2023-01-07T03:19:15.862Z,7.23
2023-01-07T03:21:42.896Z,7.13
2023-01-07T03:24:10.043Z,7.63
2023-01-07T03:26:49.206Z,7.33
2023-01-07T03:29:19.036Z,7.13
2023-01-07T03:32:13.016Z,6.93
2023-01-07T03:34:41.093Z,6.60
2023-01-07T03:37:18.498Z,7.20
2023-01-07T03:39:48.050Z,7.70
2023-01-07T03:42:39.571Z,6.90
2023-01-07T03:45:19.703Z,6.83
2023-01-07T03:47:54.111Z,7.17
2023-01-07T03:50:22.002Z,6.57
2023-01-07T03:52:50.999Z,7.47
2023-01-07T03:55:18.385Z,7.23
2023-01-07T03:57:45.638Z,7.67
2023-01-07T04:00:14.769Z,7.50
2023-01-07T04:02:43.388Z,8.00
2023-01-07T04:05:11.417Z,7.00
2023-01-07T04:07:38.944Z,7.50
2023-01-07T04:10:08.558Z,8.03
2023-01-07T04:12:35.689Z,7.70
2023-01-07T04:15:04.179Z,8.13
2023-01-07T04:17:31.167Z,8.60
2023-01-07T04:19:58.137Z,8.00
2023-01-07T04:22:25.066Z,8.70
2023-01-07T04:24:52.304Z,8.47
2023-01-07T04:27:19.290Z,7.70
2023-01-07T04:29:46.362Z,7.27
2023-01-07T04:32:13.296Z,7.73
2023-01-07T04:34:40.301Z,8.60
2023-01-07T04:37:07.293Z,8.00
2023-01-07T04:39:34.241Z,7.43
2023-01-07T04:42:01.291Z,7.67
2023-01-07T04:44:28.171Z,8.30
2023-01-07T04:46:55.098Z,8.77
2023-01-07T04:49:21.994Z,8.30
2023-01-07T04:51:48.982Z,9.30
2023-01-07T04:54:15.912Z,7.90
2023-01-07T04:56:42.904Z,8.00
2023-01-07T04:59:10.024Z,7.43
2023-01-07T05:01:37.152Z,7.90
2023-01-07T05:04:04.634Z,7.80
2023-01-07T05:06:31.532Z,6.83
2023-01-07T05:08:58.842Z,6.70
2023-01-07T05:11:25.912Z,7.90
2023-01-07T05:13:52.986Z,7.50
2023-01-07T05:16:20.092Z,6.90
2023-01-07T05:18:47.066Z,7.60
2023-01-07T05:21:14.095Z,7.20
2023-01-07T05:23:41.244Z,7.70
2023-01-07T05:26:08.237Z,7.77
2023-01-07T05:28:35.528Z,7.03
2023-01-07T05:31:03.169Z,7.70
2023-01-07T05:33:30.273Z,7.50
2023-01-07T05:35:57.272Z,8.67
2023-01-07T05:38:24.333Z,8.10
2023-01-07T05:40:51.354Z,7.60
2023-01-07T05:43:18.603Z,9.83
2023-01-07T05:45:46.710Z,8.57
2023-01-07T05:48:14.824Z,9.50
2023-01-07T05:50:42.481Z,9.97
2023-01-07T05:53:09.628Z,8.87
2023-01-07T05:55:40.673Z,8.10
2023-01-07T05:58:08.861Z,7.43
2023-01-07T06:00:37.043Z,8.00
2023-01-07T06:03:05.514Z,7.70
2023-01-07T06:05:32.834Z,7.97
2023-01-07T06:07:59.781Z,8.30
2023-01-07T06:10:26.898Z,8.70
2023-01-07T06:12:53.919Z,9.60
2023-01-07T06:15:20.889Z,9.67
2023-01-07T06:17:47.864Z,12.07
2023-01-07T06:20:15.359Z,12.40
2023-01-07T06:22:43.599Z,10.73
2023-01-07T06:25:12.829Z,11.60
2023-01-07T06:27:42.909Z,11.50
2023-01-07T06:30:12.120Z,12.00
2023-01-07T06:32:41.588Z,11.90
2023-01-07T06:35:11.870Z,11.47
2023-01-07T06:37:38.965Z,11.70
2023-01-07T06:40:07.681Z,12.40
2023-01-07T06:42:34.977Z,11.27
2023-01-07T06:45:02.031Z,12.70
2023-01-07T06:47:28.997Z,11.37
2023-01-07T06:49:56.023Z,12.23
2023-01-07T06:52:23.057Z,12.30
2023-01-07T06:54:50.050Z,12.30
2023-01-07T06:57:17.073Z,11.87
2023-01-07T06:59:44.009Z,11.70
2023-01-07T07:02:20.645Z,12.13
2023-01-07T07:04:48.231Z,12.90
2023-01-07T07:07:16.557Z,13.53
2023-01-07T07:09:44.883Z,13.23
2023-01-07T07:12:13.012Z,12.13
2023-01-07T07:14:40.037Z,13.50
2023-01-07T07:17:07.026Z,13.97
2023-01-07T07:19:33.999Z,14.20
2023-01-07T07:22:03.296Z,14.60
2023-01-07T07:24:31.524Z,13.30
2023-01-07T07:27:00.187Z,11.87
2023-01-07T07:29:27.728Z,13.30
2023-01-07T07:31:54.754Z,13.20
2023-01-07T07:34:21.743Z,12.53
2023-01-07T07:36:48.737Z,13.27
2023-01-07T07:39:16.093Z,12.60
2023-01-07T07:41:43.129Z,15.55
2023-01-07T07:44:10.108Z,12.97
2023-01-07T07:46:37.174Z,14.00
2023-01-07T07:49:04.215Z,15.70
2023-01-07T07:51:31.401Z,14.07
2023-01-07T07:53:58.643Z,14.77
2023-01-07T07:56:25.604Z,15.00
2023-01-07T07:58:52.556Z,14.90
2023-01-07T08:01:19.591Z,16.90
2023-01-07T08:03:46.571Z,15.63
2023-01-07T08:06:14.082Z,16.57
2023-01-07T08:08:42.297Z,15.30
2023-01-07T08:11:09.641Z,20.00
2023-01-07T08:13:36.683Z,19.47
2023-01-07T08:16:03.799Z,22.07
2023-01-07T08:18:30.809Z,22.70
2023-01-07T08:20:57.904Z,23.10
2023-01-07T08:23:28.146Z,22.90
2023-01-07T08:26:01.086Z,23.03
2023-01-07T08:28:28.115Z,21.23
2023-01-07T08:30:55.239Z,22.30
2023-01-07T08:33:22.441Z,21.93
2023-01-07T08:35:49.447Z,24.30
2023-01-07T08:38:16.527Z,21.80
2023-01-07T08:40:44.596Z,19.90
2023-01-07T08:43:12.758Z,19.40
2023-01-07T08:45:39.750Z,20.30
2023-01-07T08:48:07.277Z,20.37
2023-01-07T08:50:35.599Z,19.20
2023-01-07T08:53:02.631Z,19.50
2023-01-07T08:55:29.863Z,18.50
2023-01-07T08:57:57.405Z,18.10
2023-01-07T09:00:24.991Z,18.80
2023-01-07T09:02:52.137Z,19.00
2023-01-07T09:05:19.225Z,16.23
2023-01-07T09:07:46.264Z,15.63
2023-01-07T09:10:13.392Z,16.70
2023-01-07T09:12:40.354Z,15.40
2023-01-07T09:15:08.954Z,16.00
2023-01-07T09:17:36.142Z,15.73
2023-01-07T09:20:03.918Z,14.53
2023-01-07T09:22:36.660Z,15.00
2023-01-07T09:25:05.891Z,13.17
2023-01-07T09:27:33.115Z,11.47
2023-01-07T09:30:00.025Z,14.07
2023-01-07T09:32:28.611Z,13.97
2023-01-07T09:34:55.705Z,13.27
2023-01-07T09:37:23.402Z,11.33
2023-01-07T09:39:50.428Z,11.20
2023-01-07T09:42:33.779Z,11.27
2023-01-07T09:45:32.494Z,11.50
2023-01-07T09:48:05.159Z,10.13
2023-01-07T09:50:57.998Z,9.57
2023-01-07T09:53:34.769Z,12.10
2023-01-07T09:56:11.011Z,10.37
2023-01-07T09:58:45.543Z,9.83
2023-01-07T10:01:36.329Z,8.40
2023-01-07T10:04:44.264Z,7.33
2023-01-07T10:11:29.302Z,9.20
2023-01-07T10:14:12.426Z,8.40
2023-01-07T10:17:06.340Z,8.33
2023-01-07T10:20:09.930Z,10.27
2023-01-07T10:23:13.268Z,7.73
2023-01-07T10:25:51.872Z,8.83
2023-01-07T10:28:50.923Z,8.07
2023-01-07T10:31:23.052Z,8.57
2023-01-07T10:33:52.236Z,7.63
2023-01-07T10:36:38.781Z,8.07
2023-01-07T10:39:18.679Z,7.03
2023-01-07T10:42:36.990Z,6.80
2023-01-07T10:45:25.011Z,6.77
2023-01-07T10:48:03.707Z,6.57
2023-01-07T10:51:12.714Z,5.50
2023-01-07T10:54:06.539Z,6.10
2023-01-07T10:56:46.928Z,5.80
2023-01-07T10:59:22.241Z,6.00
2023-01-07T11:01:54.479Z,5.43
2023-01-07T11:04:22.217Z,5.53
2023-01-07T11:07:07.921Z,5.80
2023-01-07T11:09:44.895Z,6.07
2023-01-07T11:12:38.313Z,5.73
2023-01-07T11:15:22.009Z,6.90
2023-01-07T11:18:04.314Z,6.20
2023-01-07T11:20:47.323Z,6.03
2023-01-07T11:23:37.479Z,6.67
2023-01-07T11:26:32.555Z,7.03
2023-01-07T11:29:14.989Z,6.20
2023-01-07T11:31:51.120Z,6.20
2023-01-07T11:34:31.947Z,7.00
2023-01-07T11:36:59.249Z,6.30
2023-01-07T11:39:35.979Z,7.10
2023-01-07T11:42:41.537Z,8.37
2023-01-07T11:45:17.582Z,8.00
2023-01-07T11:48:28.938Z,7.20
2023-01-07T11:51:06.108Z,7.40
2023-01-07T11:53:39.235Z,7.60
2023-01-07T11:56:11.881Z,6.57
2023-01-07T11:59:15.869Z,7.10
2023-01-07T12:01:53.243Z,5.40
2023-01-07T12:04:37.230Z,6.60
2023-01-07T12:07:08.670Z,4.70
2023-01-07T12:09:39.175Z,4.10
2023-01-07T12:12:37.284Z,3.53
2023-01-07T12:15:19.471Z,3.30
2023-01-07T12:17:55.382Z,2.90
2023-01-07T12:20:56.021Z,3.13
2023-01-07T12:23:43.847Z,3.60
2023-01-07T12:26:26.931Z,3.63
2023-01-07T12:29:17.693Z,3.40
2023-01-07T12:31:59.384Z,4.00
2023-01-07T12:34:40.017Z,3.67
2023-01-07T12:37:25.248Z,3.37
2023-01-07T12:40:19.730Z,3.87
2023-01-07T12:43:00.029Z,3.10
2023-01-07T12:45:39.585Z,4.67
2023-01-07T12:48:34.738Z,3.77
2023-01-07T12:51:11.271Z,3.50
2023-01-07T12:53:51.207Z,3.23
2023-01-07T12:57:16.809Z,3.30
2023-01-07T13:00:13.521Z,3.67
2023-01-07T13:03:21.682Z,4.40
2023-01-07T13:05:57.754Z,3.13
2023-01-07T13:08:54.985Z,3.00
2023-01-07T13:12:00.939Z,2.90
2023-01-07T13:14:42.684Z,4.20
2023-01-07T13:17:27.323Z,5.57
2023-01-07T13:19:55.767Z,3.43
2023-01-07T13:22:54.711Z,3.90
2023-01-07T13:25:49.303Z,4.00
2023-01-07T13:28:18.925Z,4.20
2023-01-07T13:31:26.666Z,3.70
2023-01-07T13:34:16.618Z,3.33
2023-01-07T13:37:43.515Z,4.00
2023-01-07T13:46:46.398Z,3.27
2023-01-07T13:49:30.462Z,3.53
2023-01-07T13:52:19.488Z,3.60
2023-01-07T13:54:49.505Z,3.20
2023-01-07T13:57:31.790Z,3.23
2023-01-07T14:00:02.185Z,3.50
2023-01-07T14:02:57.000Z,3.10
2023-01-07T14:05:29.324Z,3.33
2023-01-07T14:08:04.210Z,2.80
2023-01-07T14:10:35.211Z,3.60
2023-01-07T14:13:28.089Z,3.77
2023-01-07T14:16:21.438Z,3.50
2023-01-07T14:19:12.385Z,3.00
2023-01-07T14:22:09.462Z,3.07
2023-01-07T14:25:12.951Z,3.33
2023-01-07T14:28:11.401Z,3.20
2023-01-07T14:30:52.412Z,3.73
2023-01-07T14:33:47.125Z,3.17
2023-01-07T14:36:14.144Z,3.10
2023-01-07T14:38:43.846Z,3.50
2023-01-07T14:41:13.467Z,3.20
2023-01-07T14:43:43.631Z,3.60
2023-01-07T14:46:49.821Z,3.20
2023-01-07T14:49:57.098Z,3.50
2023-01-07T14:53:20.470Z,3.10
2023-01-07T14:56:06.599Z,2.83
2023-01-07T14:58:42.427Z,3.27
2023-01-07T15:01:40.466Z,3.50
2023-01-07T15:04:58.021Z,3.43
2023-01-07T15:07:28.078Z,3.97
2023-01-07T15:10:32.201Z,4.23
2023-01-07T15:13:19.070Z,3.63
2023-01-07T15:16:04.109Z,3.40
2023-01-07T15:18:42.001Z,3.60
2023-01-07T15:21:58.704Z,4.10
2023-01-07T15:24:58.113Z,4.33
2023-01-07T15:27:43.550Z,4.50
2023-01-07T15:30:25.316Z,6.37
2023-01-07T15:33:10.209Z,5.30
2023-01-07T15:35:43.711Z,9.50
2023-01-07T15:38:41.658Z,5.90
2023-01-07T15:41:30.600Z,6.13
2023-01-07T15:43:59.935Z,11.47
2023-01-07T15:46:27.897Z,21.87
2023-01-07T15:49:26.494Z,8.37
2023-01-07T15:51:57.256Z,7.03
2023-01-07T15:54:35.886Z,6.70
2023-01-07T15:57:08.474Z,12.37
2023-01-07T15:59:43.310Z,33.57
2023-01-07T16:02:33.020Z,33.73
2023-01-07T16:05:03.368Z,25.33
2023-01-07T16:07:35.700Z,16.47
2023-01-07T16:10:03.150Z,13.40
2023-01-07T16:12:38.665Z,12.70
2023-01-07T16:15:44.697Z,7.57
2023-01-07T16:18:13.507Z,10.10
2023-01-07T16:20:56.732Z,5.57
2023-01-07T16:23:32.407Z,8.30
2023-01-07T16:26:05.059Z,13.70
2023-01-07T16:28:39.207Z,13.57
2023-01-07T16:31:11.453Z,14.80
2023-01-07T16:33:40.914Z,22.67
2023-01-07T16:36:23.408Z,17.07
2023-01-07T16:38:54.429Z,15.57
2023-01-07T16:41:27.687Z,14.93
2023-01-07T16:43:59.595Z,11.23
2023-01-07T16:46:38.530Z,10.80
2023-01-07T16:49:11.619Z,10.60
2023-01-07T16:52:03.339Z,8.50
2023-01-07T16:54:37.542Z,7.37
2023-01-07T16:57:11.569Z,7.97
2023-01-07T16:59:53.771Z,7.33
2023-01-07T17:02:52.497Z,13.30
2023-01-07T17:05:24.436Z,8.40
2023-01-07T17:08:07.314Z,10.00
2023-01-07T17:10:38.534Z,9.07
2023-01-07T17:13:36.620Z,9.10
2023-01-07T17:16:23.537Z,8.77
2023-01-07T17:18:52.349Z,12.77
2023-01-07T17:21:52.171Z,12.30
2023-01-07T17:24:43.448Z,11.10
2023-01-07T17:27:25.595Z,10.00
2023-01-07T17:29:53.311Z,8.27
2023-01-07T17:32:21.118Z,9.07
2023-01-07T17:34:48.095Z,7.83
2023-01-07T17:37:16.972Z,8.50
2023-01-07T17:39:44.858Z,8.03
2023-01-07T17:42:40.891Z,9.33
2023-01-07T17:45:10.456Z,10.47
2023-01-07T17:47:37.446Z,11.90
2023-01-07T17:50:04.879Z,11.47
2023-01-07T17:52:32.019Z,13.50
2023-01-07T17:54:59.226Z,12.10
2023-01-07T17:57:26.182Z,16.70
2023-01-07T17:59:53.044Z,16.87
2023-01-07T18:02:30.855Z,15.87
2023-01-07T18:04:57.911Z,18.53
2023-01-07T18:07:24.812Z,15.80
2023-01-07T18:09:51.894Z,16.80
2023-01-07T18:12:33.320Z,17.00
2023-01-07T18:15:02.964Z,16.80
2023-01-07T18:17:30.514Z,15.60
2023-01-07T18:19:57.487Z,16.90
2023-01-07T18:22:25.681Z,16.27
2023-01-07T18:24:52.815Z,14.23
2023-01-07T18:27:19.996Z,15.27
2023-01-07T18:29:46.926Z,13.90
2023-01-07T18:32:13.948Z,14.73
2023-01-07T18:34:40.996Z,14.50
2023-01-07T18:37:08.474Z,15.40
2023-01-07T18:39:35.681Z,14.90
2023-01-07T18:42:02.619Z,15.07
2023-01-07T18:44:29.735Z,16.70
2023-01-07T18:46:56.793Z,14.47
2023-01-07T18:49:24.023Z,14.70
2023-01-07T18:51:51.094Z,14.07
2023-01-07T18:54:18.080Z,14.20
2023-01-07T18:56:46.036Z,14.97
2023-01-07T18:59:14.223Z,14.43
2023-01-07T19:01:41.309Z,14.80
2023-01-07T19:04:08.526Z,16.97
2023-01-07T19:06:35.613Z,14.60
2023-01-07T19:09:02.663Z,14.57
2023-01-07T19:11:29.716Z,15.87
2023-01-07T19:13:56.644Z,13.90
2023-01-07T19:16:25.201Z,13.23
2023-01-07T19:18:53.387Z,12.87
2023-01-07T19:21:23.364Z,13.13
2023-01-07T19:23:52.082Z,14.00
2023-01-07T19:26:19.542Z,14.10
2023-01-07T19:28:47.769Z,16.03
2023-01-07T19:31:14.845Z,14.67
2023-01-07T19:33:41.824Z,16.57
2023-01-07T19:36:12.879Z,16.47
2023-01-07T19:38:48.671Z,15.63
2023-01-07T19:41:19.556Z,22.77
2023-01-07T19:43:47.783Z,14.90
2023-01-07T19:46:17.037Z,14.37
2023-01-07T19:48:47.394Z,18.00
2023-01-07T19:51:15.012Z,23.33
2023-01-07T19:53:41.911Z,23.70
2023-01-07T19:56:12.635Z,26.90
2023-01-07T19:58:40.967Z,22.63
2023-01-07T20:01:18.046Z,18.80
2023-01-07T20:03:46.760Z,17.80
2023-01-07T20:06:16.947Z,18.50
2023-01-07T20:08:45.942Z,18.80
2023-01-07T20:11:15.461Z,19.33
2023-01-07T20:13:47.175Z,18.90
2023-01-07T20:16:22.031Z,17.60
2023-01-07T20:18:53.105Z,18.37
2023-01-07T20:21:28.691Z,16.40
2023-01-07T20:23:55.701Z,18.13
2023-01-07T20:26:27.281Z,17.37
2023-01-07T20:28:55.825Z,19.50
2023-01-07T20:31:25.196Z,18.60
2023-01-07T20:33:55.580Z,17.53
2023-01-07T20:36:27.847Z,17.93
2023-01-07T20:38:55.226Z,16.33
2023-01-07T20:41:26.365Z,16.80
2023-01-07T20:44:01.457Z,16.20
2023-01-07T20:46:31.162Z,16.40
2023-01-07T20:48:58.488Z,26.77
2023-01-07T20:51:26.026Z,25.43
2023-01-07T20:53:53.385Z,38.73
2023-01-07T20:56:23.232Z,22.00
2023-01-07T20:58:50.911Z,16.90
2023-01-07T21:01:22.110Z,16.37
2023-01-07T21:03:50.107Z,18.40
2023-01-07T21:06:19.946Z,16.43
2023-01-07T21:08:50.110Z,23.50
2023-01-07T21:11:21.564Z,33.40
2023-01-07T21:13:50.672Z,20.47
2023-01-07T21:16:18.900Z,18.30
2023-01-07T21:18:47.169Z,16.97
2023-01-07T21:21:18.102Z,21.63
2023-01-07T21:23:49.255Z,17.20
2023-01-07T21:26:17.660Z,27.13
2023-01-07T21:28:45.679Z,17.50
2023-01-07T21:31:16.865Z,14.03
2023-01-07T21:33:44.979Z,15.17
2023-01-07T21:36:18.462Z,15.47
2023-01-07T21:38:47.351Z,15.33
2023-01-07T21:41:17.072Z,15.10
2023-01-07T21:43:44.993Z,14.30
2023-01-07T21:46:13.011Z,17.93
2023-01-07T21:48:45.830Z,14.13
2023-01-07T21:51:26.669Z,12.63
2023-01-07T21:53:56.090Z,13.83
2023-01-07T21:56:26.037Z,14.37
2023-01-07T21:58:53.181Z,14.10
2023-01-07T22:01:21.679Z,16.30
2023-01-07T22:03:50.034Z,12.90
2023-01-07T22:06:22.071Z,13.50
2023-01-07T22:08:58.218Z,14.60
2023-01-07T22:11:25.790Z,13.57
2023-01-07T22:13:56.080Z,12.50
2023-01-07T22:16:25.680Z,14.00
2023-01-07T22:18:53.102Z,13.90
2023-01-07T22:21:20.851Z,16.23
2023-01-07T22:23:48.438Z,17.10
2023-01-07T22:26:18.684Z,12.70
2023-01-07T22:28:54.423Z,13.93
2023-01-07T22:31:29.433Z,14.40
2023-01-07T22:33:57.338Z,14.70
2023-01-07T22:36:39.711Z,13.30
2023-01-07T22:39:37.531Z,14.57
2023-01-07T22:42:21.547Z,13.93
2023-01-07T22:44:55.979Z,13.50
2023-01-07T22:47:35.998Z,14.27
2023-01-07T22:50:06.207Z,15.00
2023-01-07T22:52:33.554Z,14.90
2023-01-07T22:55:01.526Z,14.17
2023-01-07T22:57:30.575Z,12.97
2023-01-07T22:59:59.395Z,13.20
2023-01-07T23:02:27.712Z,14.10
2023-01-07T23:04:54.690Z,13.07
2023-01-07T23:07:21.619Z,14.27
2023-01-07T23:09:50.785Z,14.10
2023-01-07T23:12:18.525Z,12.93
2023-01-07T23:14:45.456Z,13.50
2023-01-07T23:17:12.396Z,14.47
2023-01-07T23:19:39.364Z,13.03
2023-01-07T23:22:06.301Z,14.60
2023-01-07T23:24:37.120Z,13.90
2023-01-07T23:27:04.201Z,15.40
2023-01-07T23:29:31.062Z,13.60
2023-01-07T23:31:58.177Z,12.73
2023-01-07T23:34:25.104Z,13.90
2023-01-07T23:36:52.032Z,13.50
2023-01-07T23:39:19.060Z,13.80
2023-01-07T23:41:45.972Z,12.20
2023-01-07T23:44:13.103Z,12.50
2023-01-07T23:46:40.048Z,14.03
2023-01-07T23:49:07.106Z,14.73
2023-01-07T23:51:34.087Z,13.67
2023-01-07T23:54:01.016Z,14.97
2023-01-07T23:56:28.121Z,13.57
2023-01-07T23:58:55.086Z,15.30
